Flight Track Log - Related Links

Times and Time Zones

All times are in EDT time to prevent confusion due to time zone crossing. See the N2173F flight status page for this flight to view local times or setup timezone preferences in your user account.

Time Position Orientation Groundspeed Altitude Reporting Facility
EDT Latitude Longitude Course Direction KTS MPH feet Rate Location/Type
Sat 06:44:32 PM 29.0639 -82.7333 330° Northwest 131 151 4,500  Level Jacksonville Center
Sat 06:45:46 PM 29.1036 -82.7594 330° Northwest 133 153 4,200 -233 Descending Jacksonville Center
Sat 06:46:41 PM 29.1350 -82.7761 335° Northwest 143 165 4,000 -103 Descending Jacksonville Center
Sat 06:47:42 PM 29.1706 -82.7975 332° Northwest 138 159 4,000 -56 Level Jacksonville Center
Sat 06:48:29 PM 29.1975 -82.8094 339° North 145 167 3,900  Descending Jacksonville Center
Sat 06:48:48 PM 29.2058 -82.8189 315° West 131 151 4,000  Climbing Jacksonville Center
Sat 06:49:29 PM 29.2289 -82.8306 336° Northwest 139 160 3,900  Descending Jacksonville Center
Sat 06:49:44 PM 29.2353 -82.8331 341° North 133 153 4,000  Climbing Jacksonville Center
Sat 06:50:29 PM 29.2603 -82.8497 330° Northwest 134 154 3,900  Descending Jacksonville Center
Sat 06:50:45 PM 29.2686 -82.8544 334° Northwest 132 152 4,000  Climbing Jacksonville Center
Sat 06:51:29 PM 29.2936 -82.8689 333° Northwest 134 154 3,900  Descending Jacksonville Center
Sat 06:51:52 PM 29.3061 -82.8783 327° Northwest 132 152 4,000  Climbing Jacksonville Center
Sat 06:52:29 PM 29.3250 -82.8878 336° Northwest 134 154 3,900  Descending Jacksonville Center
Sat 06:52:53 PM 29.3394 -82.8972 330° Northwest 131 151 4,000  Climbing Jacksonville Center
Sat 06:53:29 PM 29.3583 -82.9069 336° Northwest 134 154 3,900  Descending Jacksonville Center
Sat 06:53:54 PM 29.3708 -82.9164 327° Northwest 129 148 4,000  Climbing Jacksonville Center
Sat 06:54:29 PM 29.3917 -82.9258 338° Northwest 134 154 3,900 -63 Descending Jacksonville Center
Sat 06:55:29 PM 29.4253 -82.9450 334° Northwest 134 154 3,900 50 Level Jacksonville Center
Sat 06:56:29 PM 29.4564 -82.9642 332° Northwest 134 154 4,000 50 Climbing Jacksonville Center
Sat 06:57:29 PM 29.4878 -82.9833 332° Northwest 134 154 4,000 -50 Level Jacksonville Center
Sat 06:58:29 PM 29.5192 -83.0025 332° Northwest 122 140 3,900 -50 Descending Jacksonville Center
Sat 06:59:29 PM 29.5503 -83.0214 332° Northwest 122 140 3,900  Level Jacksonville Center
Sat 07:00:29 PM 29.5794 -83.0383 333° Northwest 122 140 3,900  Level Jacksonville Center
Sat 07:01:29 PM 29.6067 -83.0644 320° Northwest 126 145 3,900  Level Jacksonville Center
Sat 07:02:29 PM 29.6297 -83.0956 310° West 127 146 3,900  Level Jacksonville Center
Sat 07:03:29 PM 29.6461 -83.1292 299° West 119 137 3,900  Level Jacksonville Center
Sat 07:04:29 PM 29.6692 -83.1603 310° West 127 146 3,900  Level Jacksonville Center
Sat 07:05:29 PM 29.6878 -83.1939 303° West 118 136 3,900  Level Jacksonville Center
Sat 07:06:29 PM 29.7067 -83.2250 305° West 125 144 3,900  Level Jacksonville Center
Sat 07:07:29 PM 29.7272 -83.2561 307° West 125 144 3,900 50 Level Jacksonville Center
Sat 07:08:29 PM 29.7461 -83.2872 305° West 125 144 4,000 50 Climbing Jacksonville Center
Sat 07:09:29 PM 29.7669 -83.3208 306° West 125 144 4,000  Level Jacksonville Center
Sat 07:10:29 PM 29.7856 -83.3519 305° West 125 144 4,000  Level Jacksonville Center
Sat 07:11:29 PM 29.8064 -83.3833 307° West 125 144 4,000  Level Jacksonville Center
Sat 07:12:29 PM 29.8250 -83.4169 303° West 125 144 4,000  Level Jacksonville Center
Sat 07:13:29 PM 29.8456 -83.4481 307° West 125 144 4,000  Level Jacksonville Center
Sat 07:14:29 PM 29.8644 -83.4794 305° West 125 144 4,000  Level Jacksonville Center
Sat 07:15:29 PM 29.8850 -83.5106 307° West 125 144 4,000  Level Jacksonville Center
Sat 07:16:29 PM 29.9036 -83.5419 304° West 125 144 4,000  Level Jacksonville Center
Sat 07:17:29 PM 29.9222 -83.5731 305° West 120 138 4,000  Level Jacksonville Center
Sat 07:18:29 PM 29.9431 -83.6044 307° West 120 138 4,000  Level Jacksonville Center
Sat 07:19:29 PM 29.9617 -83.6381 303° West 125 144 4,000  Level Jacksonville Center
Sat 07:20:29 PM 29.9822 -83.6694 307° West 125 144 4,000  Level Jacksonville Center
Sat 07:21:29 PM 30.0008 -83.7033 302° West 125 144 4,000  Level Jacksonville Center
Sat 07:22:29 PM 30.0217 -83.7322 310° West 120 138 4,000  Level Jacksonville Center
Sat 07:23:29 PM 30.0381 -83.7658 299° West 120 138 4,000  Level Jacksonville Center
Sat 07:24:29 PM 30.0567 -83.7972 304° West 120 138 4,000  Level Jacksonville Center
Sat 07:25:29 PM 30.0772 -83.8264 309° West 120 138 4,000  Level Jacksonville Center
Sat 07:26:29 PM 30.0978 -83.8600 305° West 120 138 4,000  Level Jacksonville Center
Sat 07:27:29 PM 30.1186 -83.8892 310° West 120 138 4,000  Level Jacksonville Center
Sat 07:28:29 PM 30.1350 -83.9231 299° West 120 138 4,000  Level Jacksonville Center
Sat 07:30:00 PM 30.1699 -83.9787 306° West  Level FlightAware Approximate
Sat 07:37:00 PM 30.3262 -84.2369 313° West  Level FlightAware Approximate
Sat 07:38:00 PM 30.3517 -84.2710 295° West  Level FlightAware Approximate
Sat 07:39:00 PM 30.3682 -84.3122 295° West  Level FlightAware Approximate
Sat 07:40:00 PM 30.3833 -84.3500 295° West  Level FlightAware Approximate
Sat 07:41:00 PM 30.3967 -84.3509 North  Level Estimated
Sat 07:42:00 PM 30.3967 -84.3509 177° South  Level Estimated
Sat 07:43:00 PM 30.3967 -84.3509 295° West  Level Estimated
Sat 07:44:00 PM 30.3967 -84.3509 177° South  Level Estimated
Sat 07:45:00 PM 30.3967 -84.3509 177° South  Level Estimated
Sat 07:46:00 PM 30.3967 -84.3509 295° West  Level Estimated
Sat 07:47:00 PM 30.3967 -84.3509 177° South  Level Estimated
Sat 07:48:00 PM 30.3967 -84.3509 177° South  Level Estimated
Sat 07:49:00 PM 30.3967 -84.3509 295° West  Level Estimated
Sat 07:50:00 PM 30.3967 -84.3509 177° South  Level Estimated
Sat 07:51:00 PM 30.3967 -84.3509 177° South  Level Estimated
Sat 07:52:00 PM 30.3967 -84.3509 295° West  Level Estimated
Sat 07:53:00 PM 30.3967 -84.3509 177° South  Level Estimated
Sat 07:54:00 PM 30.3967 -84.3509 177° South  Level Estimated

Login

Don't have an account? Register now (free) for customized features, flight alerts, and more!